createdAt,value
2018-10-05T00:02:00.696Z,100803.45
2018-10-05T00:04:30.324Z,100804.08
2018-10-05T00:06:59.979Z,100808.37
2018-10-05T00:09:29.631Z,100809.98
2018-10-05T00:11:59.311Z,100809.54
2018-10-05T00:14:28.950Z,100806.02
2018-10-05T00:16:58.596Z,100812.09
2018-10-05T00:19:28.223Z,100820.98
2018-10-05T00:21:57.876Z,100819.14
2018-10-05T00:24:27.493Z,100819.71
2018-10-05T00:26:57.216Z,100816.53
2018-10-05T00:29:26.951Z,100810.63
2018-10-05T00:31:56.608Z,100808.09
2018-10-05T00:34:26.260Z,100801.20
2018-10-05T00:36:55.920Z,100794.83
2018-10-05T00:39:25.540Z,100797.30
2018-10-05T00:41:55.188Z,100797.25
2018-10-05T00:44:24.856Z,100798.04
2018-10-05T00:46:54.508Z,100793.30
2018-10-05T00:49:24.129Z,100789.80
2018-10-05T00:51:53.795Z,100792.27
2018-10-05T00:54:23.420Z,100789.42
2018-10-05T00:56:53.089Z,100782.23
2018-10-05T00:59:22.712Z,100778.44
2018-10-05T01:01:52.444Z,100780.13
2018-10-05T01:04:22.047Z,100774.86
2018-10-05T01:06:51.769Z,100775.70
2018-10-05T01:09:21.399Z,100779.13
2018-10-05T01:11:51.064Z,100779.34
2018-10-05T01:14:20.688Z,100777.66
2018-10-05T01:16:50.345Z,100767.80
2018-10-05T01:19:19.971Z,100765.07
2018-10-05T01:21:49.616Z,100769.37
2018-10-05T01:24:19.247Z,100759.14
2018-10-05T01:26:48.883Z,100761.18
2018-10-05T01:29:18.512Z,100758.66
2018-10-05T01:31:48.156Z,100759.65
2018-10-05T01:34:17.802Z,100756.55
2018-10-05T01:36:47.436Z,100755.69
2018-10-05T01:39:17.057Z,100752.47
2018-10-05T01:41:46.696Z,100746.33
2018-10-05T01:44:16.320Z,100747.88
2018-10-05T01:46:45.996Z,100746.61
2018-10-05T01:49:15.631Z,100746.33
2018-10-05T01:51:45.288Z,100751.97
2018-10-05T01:54:14.904Z,100750.67
2018-10-05T01:56:44.621Z,100748.72
2018-10-05T01:59:14.260Z,100750.61
2018-10-05T02:01:43.892Z,100740.38
2018-10-05T02:04:13.565Z,100743.05
2018-10-05T02:06:43.193Z,100742.22
2018-10-05T02:09:12.847Z,100741.21
2018-10-05T02:11:42.480Z,100736.04
2018-10-05T02:14:12.137Z,100729.90
2018-10-05T02:16:41.776Z,100730.98
2018-10-05T02:19:11.446Z,100725.27
2018-10-05T02:21:41.073Z,100728.84
2018-10-05T02:24:10.736Z,100715.08
2018-10-05T02:26:40.360Z,100706.62
2018-10-05T02:29:10.009Z,100705.93
2018-10-05T02:31:39.631Z,100701.20
2018-10-05T02:34:09.295Z,100702.61
2018-10-05T02:36:38.933Z,100699.29
2018-10-05T02:39:10.553Z,100703.59
2018-10-05T02:41:40.271Z,100700.58
2018-10-05T02:44:10.253Z,100691.61
2018-10-05T02:46:39.959Z,100691.61
2018-10-05T02:49:09.624Z,100694.72
2018-10-05T02:51:39.269Z,100689.80
2018-10-05T02:54:08.932Z,100689.59
2018-10-05T02:56:38.604Z,100700.29
2018-10-05T02:59:08.276Z,100691.01
2018-10-05T03:01:48.917Z,100690.72
2018-10-05T03:04:18.584Z,100699.22
2018-10-05T03:06:48.260Z,100697.52
2018-10-05T03:09:17.997Z,100697.23
2018-10-05T03:11:47.619Z,100685.68
2018-10-05T03:14:17.308Z,100684.99
2018-10-05T03:16:46.943Z,100685.28
2018-10-05T03:19:16.591Z,100679.47
2018-10-05T03:21:46.216Z,100685.50
2018-10-05T03:24:15.872Z,100684.70
2018-10-05T03:26:45.513Z,100681.20
2018-10-05T03:29:15.172Z,100672.82
2018-10-05T03:31:44.807Z,100672.06
2018-10-05T03:34:14.464Z,100671.23
2018-10-05T03:36:44.083Z,100672.78
2018-10-05T03:39:13.746Z,100670.05
2018-10-05T03:41:43.388Z,100666.80
2018-10-05T03:44:13.078Z,100666.80
2018-10-05T03:46:42.712Z,100659.82
2018-10-05T03:49:12.353Z,100663.76
2018-10-05T03:51:41.980Z,100656.93
2018-10-05T03:54:11.621Z,100649.70
2018-10-05T03:56:41.284Z,100648.73
2018-10-05T03:59:10.944Z,100648.16
2018-10-05T04:01:40.572Z,100650.02
2018-10-05T04:04:10.220Z,100643.13
2018-10-05T04:06:39.844Z,100644.20
2018-10-05T04:09:10.645Z,100646.16
2018-10-05T04:11:40.290Z,100643.56
2018-10-05T04:14:09.948Z,100640.37
2018-10-05T04:16:39.592Z,100652.16
2018-10-05T04:19:09.236Z,100652.45
2018-10-05T04:21:38.981Z,100654.41
2018-10-05T04:24:08.679Z,100654.00
2018-10-05T04:26:38.332Z,100656.10
2018-10-05T04:29:07.987Z,100654.98
2018-10-05T04:31:37.614Z,100653.28
2018-10-05T04:34:07.293Z,100650.25
2018-10-05T04:36:36.924Z,100646.60
2018-10-05T04:39:07.888Z,100647.00
2018-10-05T04:41:37.516Z,100648.13
2018-10-05T04:44:07.216Z,100652.48
2018-10-05T04:46:36.856Z,100642.88
2018-10-05T04:49:06.509Z,100649.85
2018-10-05T04:51:36.160Z,100646.38
2018-10-05T04:54:05.795Z,100647.47
2018-10-05T04:56:35.585Z,100650.18
2018-10-05T04:59:05.142Z,100647.80
2018-10-05T05:01:34.779Z,100647.58
2018-10-05T05:04:04.436Z,100656.17
2018-10-05T05:06:34.080Z,100657.08
2018-10-05T05:09:04.169Z,100651.38
2018-10-05T05:11:33.848Z,100651.08
2018-10-05T05:14:03.489Z,100655.81
2018-10-05T05:16:33.149Z,100659.17
2018-10-05T05:19:02.813Z,100661.48
2018-10-05T05:21:32.473Z,100659.81
2018-10-05T05:24:02.089Z,100668.27
2018-10-05T05:26:31.780Z,100660.58
2018-10-05T05:29:01.409Z,100659.89
2018-10-05T05:31:31.058Z,100666.21
2018-10-05T05:34:00.744Z,100668.20
2018-10-05T05:36:30.372Z,100673.25
2018-10-05T05:38:59.999Z,100673.40
2018-10-05T05:41:29.664Z,100672.89
2018-10-05T05:43:59.297Z,100671.48
2018-10-05T05:46:28.981Z,100668.09
2018-10-05T05:48:58.612Z,100667.69
2018-10-05T05:51:28.283Z,100667.63
2018-10-05T05:53:58.300Z,100674.55
2018-10-05T05:56:28.364Z,100666.44
2018-10-05T05:58:57.983Z,100664.98
2018-10-05T06:01:27.636Z,100663.50
2018-10-05T06:03:57.297Z,100659.42
2018-10-05T06:06:26.977Z,100655.16
2018-10-05T06:08:56.613Z,100659.16
2018-10-05T06:11:26.264Z,100656.38
2018-10-05T06:13:55.880Z,100654.39
2018-10-05T06:16:25.602Z,100650.73
2018-10-05T06:18:55.224Z,100657.20
2018-10-05T06:21:25.020Z,100643.78
2018-10-05T06:23:54.614Z,100648.33
2018-10-05T06:26:24.300Z,100653.63
2018-10-05T06:28:53.948Z,100657.20
2018-10-05T06:31:23.616Z,100655.02
2018-10-05T06:33:53.258Z,100656.35
2018-10-05T06:36:22.937Z,100652.99
2018-10-05T06:38:52.562Z,100646.43
2018-10-05T06:41:22.215Z,100652.91
2018-10-05T06:43:52.269Z,100653.83
2018-10-05T06:46:21.944Z,100654.16
2018-10-05T06:48:51.585Z,100650.41
2018-10-05T06:51:21.260Z,100655.65
2018-10-05T06:53:50.880Z,100654.58
2018-10-05T06:56:20.559Z,100657.52
2018-10-05T06:58:50.201Z,100648.69
2018-10-05T07:01:20.315Z,100654.86
2018-10-05T07:03:49.943Z,100660.93
2018-10-05T07:06:19.620Z,100656.52
2018-10-05T07:08:49.252Z,100652.02
2018-10-05T07:11:18.931Z,100657.69
2018-10-05T07:13:48.604Z,100657.16
2018-10-05T07:16:18.316Z,100655.56
2018-10-05T07:18:47.951Z,100658.45
2018-10-05T07:21:17.639Z,100648.92
2018-10-05T07:23:47.236Z,100651.06
2018-10-05T07:26:16.900Z,100654.89
2018-10-05T07:28:46.614Z,100650.48
2018-10-05T07:31:16.210Z,100652.97
2018-10-05T07:33:45.841Z,100653.63
2018-10-05T07:36:15.520Z,100647.64
2018-10-05T07:38:45.176Z,100651.94
2018-10-05T07:41:14.868Z,100654.41
2018-10-05T07:43:44.501Z,100650.43
2018-10-05T07:46:14.184Z,100644.53
2018-10-05T07:48:43.808Z,100646.63
2018-10-05T07:51:13.431Z,100646.31
2018-10-05T07:53:43.096Z,100649.79
2018-10-05T07:56:12.928Z,100641.77
2018-10-05T07:58:42.660Z,100644.16
2018-10-05T08:01:12.714Z,100634.28
2018-10-05T08:03:42.345Z,100636.72
2018-10-05T08:06:11.985Z,100629.22
2018-10-05T08:08:41.667Z,100626.74
2018-10-05T08:11:11.304Z,100626.25
2018-10-05T08:13:40.940Z,100628.28
2018-10-05T08:16:10.620Z,100617.30
2018-10-05T08:18:40.256Z,100623.46
2018-10-05T08:21:09.948Z,100618.96
2018-10-05T08:23:39.607Z,100622.53
2018-10-05T08:26:09.252Z,100621.72
2018-10-05T08:28:38.892Z,100620.44
2018-10-05T08:31:08.632Z,100614.38
2018-10-05T08:33:38.292Z,100618.62
2018-10-05T08:36:08.236Z,100614.92
2018-10-05T08:38:37.848Z,100615.62
2018-10-05T08:41:07.492Z,100619.30
2018-10-05T08:43:37.160Z,100611.89
2018-10-05T08:46:06.828Z,100608.34
2018-10-05T08:48:36.458Z,100613.18
2018-10-05T08:51:06.256Z,100610.47
2018-10-05T08:53:35.872Z,100614.31
2018-10-05T08:56:05.504Z,100611.40
2018-10-05T08:58:35.199Z,100603.22
2018-10-05T09:01:04.829Z,100603.19
2018-10-05T09:03:34.460Z,100606.22
2018-10-05T09:06:04.178Z,100606.78
2018-10-05T09:08:33.802Z,100600.19
2018-10-05T09:11:03.424Z,100596.35
2018-10-05T09:13:33.087Z,100589.76
2018-10-05T09:16:02.716Z,100589.34
2018-10-05T09:18:32.369Z,100589.06
2018-10-05T09:21:02.048Z,100585.22
2018-10-05T09:23:31.688Z,100576.37
2018-10-05T09:26:01.324Z,100574.20
2018-10-05T09:28:31.050Z,100572.55
2018-10-05T09:31:00.668Z,100567.77
2018-10-05T09:33:30.296Z,100568.48
2018-10-05T09:36:00.032Z,100570.25
2018-10-05T09:38:29.657Z,100563.90
2018-10-05T09:40:59.308Z,100559.16
2018-10-05T09:43:29.068Z,100555.61
2018-10-05T09:45:58.740Z,100551.72
2018-10-05T09:48:28.371Z,100548.05
2018-10-05T09:50:58.367Z,100544.26
2018-10-05T09:53:28.020Z,100542.44
2018-10-05T09:55:57.678Z,100540.78
2018-10-05T09:58:27.393Z,100530.64
2018-10-05T10:01:02.240Z,100528.59
2018-10-05T10:03:33.718Z,100524.57
2018-10-05T10:06:03.864Z,100520.03
2018-10-05T10:08:33.556Z,100518.35
2018-10-05T10:11:03.216Z,100512.36
2018-10-05T10:13:32.916Z,100510.20
2018-10-05T10:16:02.597Z,100507.16
2018-10-05T10:18:32.280Z,100500.14
2018-10-05T10:21:01.908Z,100491.23
2018-10-05T10:23:31.616Z,100493.61
2018-10-05T10:26:01.280Z,100488.80
2018-10-05T10:28:31.004Z,100495.40
2018-10-05T10:31:00.620Z,100485.44
2018-10-05T10:33:30.287Z,100486.92
2018-10-05T10:35:59.927Z,100474.59
2018-10-05T10:38:29.573Z,100474.68
2018-10-05T10:40:59.281Z,100473.35
2018-10-05T10:43:28.940Z,100467.11
2018-10-05T10:45:58.588Z,100458.48
2018-10-05T10:48:28.241Z,100462.15
2018-10-05T10:50:57.864Z,100464.97
2018-10-05T10:53:27.541Z,100462.98
2018-10-05T10:55:57.202Z,100459.44
2018-10-05T10:58:26.906Z,100449.29
2018-10-05T11:00:56.580Z,100445.19
2018-10-05T11:03:26.246Z,100446.39
2018-10-05T11:05:55.908Z,100440.62
2018-10-05T11:08:25.652Z,100429.70
2018-10-05T11:10:55.356Z,100428.64
2018-10-05T11:13:24.983Z,100417.99
2018-10-05T11:15:54.627Z,100420.09
2018-10-05T11:18:24.284Z,100409.77
2018-10-05T11:20:53.937Z,100406.51
2018-10-05T11:23:23.662Z,100400.64
2018-10-05T11:25:53.376Z,100391.53
2018-10-05T11:28:23.046Z,100389.53
2018-10-05T11:30:53.016Z,100390.55
2018-10-05T11:33:22.715Z,100382.83
2018-10-05T11:35:52.351Z,100374.72
2018-10-05T11:38:22.008Z,100378.12
2018-10-05T11:40:51.705Z,100373.23
2018-10-05T11:43:21.592Z,100370.09
2018-10-05T11:45:51.263Z,100370.89
2018-10-05T11:48:20.933Z,100368.72
2018-10-05T11:50:50.592Z,100367.55
2018-10-05T11:53:20.240Z,100361.63
2018-10-05T11:55:49.882Z,100362.30
2018-10-05T11:58:19.596Z,100355.45
2018-10-05T12:00:49.227Z,100353.55
2018-10-05T12:03:18.871Z,100355.14
2018-10-05T12:05:48.515Z,100349.25
2018-10-05T12:08:18.212Z,100342.66
2018-10-05T12:10:47.861Z,100338.22
2018-10-05T12:13:17.535Z,100324.14
2018-10-05T12:15:47.168Z,100328.34
2018-10-05T12:18:16.849Z,100319.05
2018-10-05T12:20:46.484Z,100316.73
2018-10-05T12:23:16.148Z,100319.26
2018-10-05T12:25:45.827Z,100312.91
2018-10-05T12:28:15.596Z,100309.06
2018-10-05T12:30:45.224Z,100305.50
2018-10-05T12:33:14.904Z,100303.48
2018-10-05T12:35:44.548Z,100299.13
2018-10-05T12:38:14.192Z,100292.55
2018-10-05T12:40:43.803Z,100299.67
2018-10-05T12:43:13.484Z,100293.53
2018-10-05T12:45:43.115Z,100296.88
2018-10-05T12:48:12.752Z,100295.05
2018-10-05T12:50:42.388Z,100287.20
2018-10-05T12:53:12.056Z,100284.86
2018-10-05T12:55:41.681Z,100287.27
2018-10-05T12:58:11.417Z,100285.47
2018-10-05T13:00:41.056Z,100284.40
2018-10-05T13:03:10.704Z,100281.70
2018-10-05T13:05:40.328Z,100279.25
2018-10-05T13:08:09.979Z,100261.84
2018-10-05T13:10:39.615Z,100269.41
2018-10-05T13:13:09.349Z,100263.64
2018-10-05T13:15:38.929Z,100264.98
2018-10-05T13:18:09.126Z,100257.70
2018-10-05T13:20:38.860Z,100254.18
2018-10-05T13:23:08.792Z,100245.91
2018-10-05T13:25:38.446Z,100241.73
2018-10-05T13:28:08.312Z,100242.03
2018-10-05T13:30:37.933Z,100230.30
2018-10-05T13:33:07.636Z,100222.12
2018-10-05T13:35:37.279Z,100226.05
2018-10-05T13:38:07.012Z,100229.92
2018-10-05T13:40:36.688Z,100219.01
2018-10-05T13:43:06.392Z,100214.16
2018-10-05T13:45:36.029Z,100212.68
2018-10-05T13:48:05.716Z,100212.06
2018-10-05T13:50:35.362Z,100213.36
2018-10-05T13:53:05.027Z,100206.31
2018-10-05T13:55:34.648Z,100199.59
2018-10-05T13:58:04.308Z,100195.33
2018-10-05T14:00:33.980Z,100200.36
2018-10-05T14:03:03.637Z,100189.37
2018-10-05T14:05:33.268Z,100188.45
2018-10-05T14:08:02.941Z,100186.61
2018-10-05T14:10:32.619Z,100177.63
2018-10-05T14:13:02.269Z,100177.44
2018-10-05T14:15:31.896Z,100172.12
2018-10-05T14:18:01.540Z,100167.69
2018-10-05T14:20:31.255Z,100166.92
2018-10-05T14:23:00.840Z,100166.36
2018-10-05T14:25:30.515Z,100167.05
2018-10-05T14:28:00.211Z,100157.08
2018-10-05T14:30:29.856Z,100156.28
2018-10-05T14:32:59.518Z,100146.84
2018-10-05T14:35:29.165Z,100141.03
2018-10-05T14:37:58.866Z,100139.31
2018-10-05T14:40:28.844Z,100129.84
2018-10-05T14:42:58.500Z,100133.77
2018-10-05T14:45:28.172Z,100126.49
2018-10-05T14:47:57.824Z,100119.61
2018-10-05T14:50:27.502Z,100115.63
2018-10-05T14:52:57.155Z,100116.08
2018-10-05T14:55:26.888Z,100115.63
2018-10-05T14:57:56.538Z,100112.69
2018-10-05T15:00:26.204Z,100112.74
2018-10-05T15:02:55.881Z,100108.73
2018-10-05T15:05:25.535Z,100101.16
2018-10-05T15:07:55.186Z,100094.50
2018-10-05T15:10:24.801Z,100100.70
2018-10-05T15:12:54.574Z,100090.31
2018-10-05T15:15:24.148Z,100092.00
2018-10-05T15:17:53.808Z,100093.34
2018-10-05T15:20:23.440Z,100087.17
2018-10-05T15:22:53.092Z,100083.67
2018-10-05T15:25:22.732Z,100082.08
2018-10-05T15:27:52.371Z,100083.71
2018-10-05T15:30:21.996Z,100083.74
2018-10-05T15:32:51.703Z,100078.62
2018-10-05T15:35:21.333Z,100080.58
2018-10-05T15:37:51.083Z,100076.11
2018-10-05T15:40:20.960Z,100072.03
2018-10-05T15:42:50.613Z,100069.23
2018-10-05T15:45:20.245Z,100065.46
2018-10-05T15:47:50.807Z,100063.63
2018-10-05T15:50:20.536Z,100060.44
2018-10-05T15:52:50.260Z,100061.72
2018-10-05T15:55:19.919Z,100053.86
2018-10-05T15:57:49.576Z,100052.55
2018-10-05T16:00:19.480Z,100049.20
2018-10-05T16:02:49.161Z,100046.16
2018-10-05T16:05:18.882Z,100050.31
2018-10-05T16:07:48.592Z,100051.59
2018-10-05T16:10:18.263Z,100051.73
2018-10-05T16:12:47.925Z,100041.55
2018-10-05T16:15:17.572Z,100038.80
2018-10-05T16:17:47.232Z,100041.78
2018-10-05T16:20:17.845Z,100044.74
2018-10-05T16:22:47.595Z,100042.02
2018-10-05T16:25:17.251Z,100037.09
2018-10-05T16:27:46.952Z,100040.45
2018-10-05T16:30:16.600Z,100040.93
2018-10-05T16:32:46.278Z,100044.28
2018-10-05T16:35:15.916Z,100034.23
2018-10-05T16:37:45.581Z,100033.31
2018-10-05T16:40:15.249Z,100029.06
2018-10-05T16:42:44.887Z,100024.23
2018-10-05T16:45:14.531Z,100028.13
2018-10-05T16:47:44.220Z,100027.00
2018-10-05T16:50:13.852Z,100026.68
2018-10-05T16:52:43.528Z,100019.41
2018-10-05T16:55:13.208Z,100020.35
2018-10-05T16:57:42.855Z,100019.55
2018-10-05T17:00:12.527Z,100017.67
2018-10-05T17:02:42.180Z,100011.32
2018-10-05T17:05:11.811Z,100013.31
2018-10-05T17:07:41.498Z,100012.30
2018-10-05T17:10:11.112Z,100008.34
2018-10-05T17:12:40.777Z,100011.88
2018-10-05T17:15:10.431Z,100011.34
2018-10-05T17:17:40.104Z,100014.16
2018-10-05T17:20:09.732Z,100007.72
2018-10-05T17:22:39.381Z,100017.80
2018-10-05T17:25:09.044Z,100015.73
2018-10-05T17:27:38.682Z,100016.75
2018-10-05T17:30:08.352Z,100016.33
2018-10-05T17:32:37.971Z,100009.98
2018-10-05T17:35:07.846Z,100010.41
2018-10-05T17:37:37.436Z,100003.43
2018-10-05T17:40:07.842Z,100003.11
2018-10-05T17:42:37.587Z,99997.16
2018-10-05T17:45:07.420Z,99991.42
2018-10-05T17:47:37.056Z,99993.42
2018-10-05T17:50:06.820Z,99986.61
2018-10-05T17:52:36.440Z,99992.95
2018-10-05T17:55:06.147Z,99993.97
2018-10-05T17:57:35.792Z,100000.49
2018-10-05T18:00:05.552Z,99997.50
2018-10-05T18:02:35.188Z,99996.28
2018-10-05T18:05:04.904Z,99995.33
2018-10-05T18:07:34.597Z,99992.48
2018-10-05T18:10:04.337Z,99987.17
2018-10-05T18:12:33.971Z,99990.44
2018-10-05T18:15:03.636Z,99981.77
2018-10-05T18:17:33.291Z,99982.88
2018-10-05T18:20:02.962Z,99980.35
2018-10-05T18:22:32.611Z,99974.97
2018-10-05T18:25:02.236Z,99967.98
2018-10-05T18:27:31.876Z,99971.29
2018-10-05T18:30:01.536Z,99971.63
2018-10-05T18:32:31.203Z,99964.84
2018-10-05T18:35:00.854Z,99961.44
2018-10-05T18:37:30.501Z,99962.02
2018-10-05T18:40:00.168Z,99964.91
2018-10-05T18:42:29.833Z,99957.22
2018-10-05T18:44:59.468Z,99960.25
2018-10-05T18:47:29.145Z,99955.66
2018-10-05T18:49:58.768Z,99955.36
2018-10-05T18:52:28.428Z,99956.70
2018-10-05T18:54:58.094Z,99957.88
2018-10-05T18:57:27.779Z,99957.48
2018-10-05T18:59:57.438Z,99955.42
2018-10-05T19:02:27.200Z,99958.95
2018-10-05T19:04:56.880Z,99962.45
2018-10-05T19:07:26.550Z,99962.95
2018-10-05T19:09:56.176Z,99959.30
2018-10-05T19:12:25.836Z,99955.59
2018-10-05T19:14:55.452Z,99954.04
2018-10-05T19:17:25.116Z,99951.55
2018-10-05T19:19:54.735Z,99955.66
2018-10-05T19:22:24.461Z,99951.16
2018-10-05T19:24:54.085Z,99943.25
2018-10-05T19:27:23.738Z,99938.41
2018-10-05T19:29:53.384Z,99934.23
2018-10-05T19:32:23.032Z,99930.51
2018-10-05T19:34:52.778Z,99928.48
2018-10-05T19:37:22.545Z,99919.13
2018-10-05T19:39:52.200Z,99920.67
2018-10-05T19:42:21.887Z,99916.58
2018-10-05T19:44:51.628Z,99913.46
2018-10-05T19:47:21.321Z,99912.94
2018-10-05T19:49:50.951Z,99920.61
2018-10-05T19:52:20.580Z,99918.25
2018-10-05T19:54:50.236Z,99918.45
2018-10-05T19:57:20.030Z,99914.41
2018-10-05T19:59:49.656Z,99916.30
2018-10-05T20:02:19.360Z,99916.09
2018-10-05T20:04:48.992Z,99916.80
2018-10-05T20:07:18.778Z,99909.94
2018-10-05T20:09:48.452Z,99905.90
2018-10-05T20:12:18.124Z,99903.86
2018-10-05T20:14:47.900Z,99896.20
2018-10-05T20:17:17.684Z,99899.88
2018-10-05T20:19:47.824Z,99896.52
2018-10-05T20:22:17.486Z,99894.69
2018-10-05T20:24:47.092Z,99885.70
2018-10-05T20:27:16.704Z,99889.30
2018-10-05T20:29:46.456Z,99887.30
2018-10-05T20:32:16.076Z,99883.45
2018-10-05T20:34:45.727Z,99893.94
2018-10-05T20:37:15.492Z,99890.11
2018-10-05T20:39:45.124Z,99895.90
2018-10-05T20:42:14.856Z,99890.98
2018-10-05T20:44:44.576Z,99894.06
2018-10-05T20:47:14.242Z,99887.34
2018-10-05T20:49:43.853Z,99886.67
2018-10-05T20:52:13.552Z,99891.67
2018-10-05T20:54:43.368Z,99886.67
2018-10-05T20:57:13.111Z,99885.70
2018-10-05T20:59:42.767Z,99883.03
2018-10-05T21:02:12.812Z,99891.11
2018-10-05T21:04:42.480Z,99886.27
2018-10-05T21:07:12.096Z,99880.75
2018-10-05T21:09:41.776Z,99883.30
2018-10-05T21:12:11.400Z,99880.75
2018-10-05T21:14:41.020Z,99882.25
2018-10-05T21:17:10.749Z,99876.24
2018-10-05T21:19:40.460Z,99878.08
2018-10-05T21:22:10.089Z,99875.09
2018-10-05T21:24:39.711Z,99868.22
2018-10-05T21:27:09.372Z,99866.45
2018-10-05T21:29:38.991Z,99868.05
2018-10-05T21:32:08.601Z,99865.80
2018-10-05T21:34:38.276Z,99863.06
2018-10-05T21:37:07.909Z,99860.66
2018-10-05T21:39:37.588Z,99863.58
2018-10-05T21:42:07.295Z,99857.88
2018-10-05T21:44:36.915Z,99861.09
2018-10-05T21:47:06.563Z,99859.98
2018-10-05T21:49:36.222Z,99853.78
2018-10-05T21:52:05.920Z,99860.66
2018-10-05T21:54:35.703Z,99858.02
2018-10-05T21:57:05.413Z,99850.44
2018-10-05T21:59:35.199Z,99850.24
2018-10-05T22:02:04.857Z,99851.44
2018-10-05T22:04:34.508Z,99851.97
2018-10-05T22:07:04.123Z,99845.62
2018-10-05T22:09:33.729Z,99846.88
2018-10-05T22:12:03.412Z,99839.77
2018-10-05T22:14:33.031Z,99843.19
2018-10-05T22:17:02.648Z,99843.56
2018-10-05T22:19:32.379Z,99841.20
2018-10-05T22:22:01.982Z,99834.83
2018-10-05T22:24:31.616Z,99839.62
2018-10-05T22:27:01.276Z,99838.27
2018-10-05T22:29:30.940Z,99830.16
2018-10-05T22:32:00.552Z,99832.77
2018-10-05T22:34:30.212Z,99829.49
2018-10-05T22:36:59.827Z,99829.98
2018-10-05T22:39:29.437Z,99824.11
2018-10-05T22:41:59.675Z,99822.83
2018-10-05T22:44:29.317Z,99822.69
2018-10-05T22:46:59.315Z,99814.61
2018-10-05T22:49:28.937Z,99810.97
2018-10-05T22:51:58.556Z,99812.16
2018-10-05T22:54:28.263Z,99808.27
2018-10-05T22:56:57.864Z,99802.31
2018-10-05T22:59:27.496Z,99807.55
2018-10-05T23:01:57.207Z,99804.09
2018-10-05T23:04:26.819Z,99802.41
2018-10-05T23:06:56.431Z,99803.95
2018-10-05T23:09:26.092Z,99796.41
2018-10-05T23:11:55.708Z,99802.03
2018-10-05T23:14:25.328Z,99801.70
2018-10-05T23:16:54.992Z,99798.71
2018-10-05T23:19:24.626Z,99799.44
2018-10-05T23:21:54.320Z,99794.70
2018-10-05T23:24:23.944Z,99788.23
2018-10-05T23:26:53.588Z,99788.30
2018-10-05T23:29:23.243Z,99789.84
2018-10-05T23:31:52.852Z,99789.23
2018-10-05T23:34:22.471Z,99781.16
2018-10-05T23:36:52.139Z,99789.94
2018-10-05T23:39:21.764Z,99785.62
2018-10-05T23:41:51.368Z,99784.08
2018-10-05T23:44:21.036Z,99789.30
2018-10-05T23:46:50.667Z,99782.93
2018-10-05T23:49:20.295Z,99778.22
2018-10-05T23:51:50.125Z,99774.59
2018-10-05T23:54:19.737Z,99778.77
2018-10-05T23:56:49.348Z,99775.64
2018-10-05T23:59:18.996Z,99766.84
